Time;durP1;ratioP1;P1;durP2;ratioP2;P2;SDS_P1;SDS_P2;PMS_P1;PMS_P2;Temp;Humidity;BMP_temperature;BMP_pressure;BME280_temperature;BME280_humidity;BME280_pressure;Samples;Min_cycle;Max_cycle;Signal;HPM_P1;HPM_P2
2022/07/14 00:01:22;;;;;;;12.00;2.50;;;15.60;99.90;;;;;;5055029;28;20085;-73
2022/07/14 00:03:48;;;;;;;11.55;2.40;;;15.60;99.90;;;;;;5071536;28;20064;-73
2022/07/14 00:06:15;;;;;;;8.95;2.25;;;15.60;99.90;;;;;;5054838;28;20551;-73
2022/07/14 00:08:43;;;;;;;10.98;2.30;;;15.60;99.90;;;;;;5071592;28;20534;-73
2022/07/14 00:11:10;;;;;;;9.55;2.17;;;15.60;99.90;;;;;;5054867;28;20044;-73
2022/07/14 00:13:35;;;;;;;12.23;2.22;;;15.50;99.90;;;;;;5054980;28;20378;-72
2022/07/14 00:16:02;;;;;;;9.45;2.00;;;15.50;99.90;;;;;;5071482;28;20511;-73
2022/07/14 00:18:27;;;;;;;13.38;2.15;;;15.50;99.90;;;;;;5054671;28;20134;-73
2022/07/14 00:20:53;;;;;;;9.57;1.85;;;15.50;99.90;;;;;;5071423;28;20048;-73
2022/07/14 00:23:21;;;;;;;11.05;2.13;;;15.50;99.90;;;;;;5071402;28;20043;-73
2022/07/14 00:25:47;;;;;;;8.15;1.80;;;15.50;99.90;;;;;;5071717;28;20058;-73
2022/07/14 00:28:13;;;;;;;10.45;1.90;;;15.40;99.90;;;;;;5071407;28;20040;-73
2022/07/14 00:30:38;;;;;;;9.18;2.00;;;15.40;99.90;;;;;;5071701;28;20039;-73
2022/07/14 00:33:04;;;;;;;10.52;2.25;;;15.30;99.90;;;;;;5071270;28;20408;-73
2022/07/14 00:35:29;;;;;;;8.45;2.10;;;15.30;99.90;;;;;;5071361;28;20114;-73
2022/07/14 00:37:55;;;;;;;7.50;1.80;;;15.30;99.90;;;;;;5054850;28;20044;-73
2022/07/14 00:40:20;;;;;;;7.95;1.77;;;15.20;99.90;;;;;;5071561;28;20455;-73
2022/07/14 00:42:50;;;;;;;11.35;2.15;;;15.20;99.90;;;;;;5071105;28;20483;-73
2022/07/14 00:45:20;;;;;;;8.80;2.20;;;15.10;99.90;;;;;;5071575;28;20033;-71
2022/07/14 00:47:46;;;;;;;11.57;2.30;;;15.10;99.90;;;;;;5073623;28;20044;-71
2022/07/14 00:50:14;;;;;;;9.50;2.10;;;15.00;99.90;;;;;;5075030;28;20070;-71
2022/07/14 00:52:44;;;;;;;11.40;2.10;;;15.00;99.90;;;;;;5074956;28;20461;-71
2022/07/14 00:55:12;;;;;;;12.35;2.60;;;15.00;99.90;;;;;;5075757;28;20089;-71
2022/07/14 00:57:38;;;;;;;11.85;2.45;;;14.90;99.90;;;;;;5076419;28;20056;-71
2022/07/14 01:00:09;;;;;;;11.32;2.60;;;14.90;99.90;;;;;;5075183;28;20024;-71
2022/07/14 01:02:35;;;;;;;10.75;2.30;;;14.90;99.90;;;;;;5076263;28;20048;-71
2022/07/14 01:05:01;;;;;;;9.80;2.08;;;14.90;99.90;;;;;;5074979;28;20520;-71
2022/07/14 01:07:27;;;;;;;12.05;2.63;;;14.90;99.90;;;;;;5075085;28;20438;-71
2022/07/14 01:09:52;;;;;;;9.80;2.50;;;14.80;99.90;;;;;;5076208;28;20485;-71
2022/07/14 01:12:18;;;;;;;10.98;2.70;;;14.80;99.90;;;;;;5074736;28;20042;-71
2022/07/14 01:14:45;;;;;;;9.57;2.47;;;14.80;99.90;;;;;;5076265;28;20096;-71
2022/07/14 01:17:10;;;;;;;9.02;2.30;;;14.70;99.90;;;;;;5076178;28;20040;-71
2022/07/14 01:19:37;;;;;;;9.27;2.40;;;14.70;99.90;;;;;;5075584;28;20089;-71
2022/07/14 01:22:03;;;;;;;14.70;2.90;;;14.60;99.90;;;;;;5075965;28;20076;-71
2022/07/14 01:24:29;;;;;;;13.85;3.03;;;14.60;99.90;;;;;;5074441;28;20127;-71
2022/07/14 01:26:55;;;;;;;8.43;2.00;;;14.50;99.90;;;;;;5075870;28;20124;-71
2022/07/14 01:29:21;;;;;;;11.52;2.20;;;14.50;99.90;;;;;;5075583;28;20464;-71
2022/07/14 01:31:46;;;;;;;11.25;2.53;;;14.50;99.90;;;;;;5074242;28;20040;-71
2022/07/14 01:34:12;;;;;;;10.13;2.50;;;14.50;99.90;;;;;;5075664;28;20098;-71
2022/07/14 01:36:38;;;;;;;7.53;1.95;;;14.40;99.90;;;;;;5074286;28;20051;-71
2022/07/14 01:39:05;;;;;;;18.42;2.58;;;14.40;99.90;;;;;;5057704;28;20044;-71
2022/07/14 01:41:31;;;;;;;13.40;2.78;;;14.40;99.90;;;;;;5075706;28;20040;-71
2022/07/14 01:43:57;;;;;;;9.75;2.58;;;14.40;99.90;;;;;;5074015;28;20386;-71
2022/07/14 01:46:22;;;;;;;10.27;2.17;;;14.30;99.90;;;;;;5074502;28;20043;-71
2022/07/14 01:48:48;;;;;;;9.85;2.35;;;14.30;99.90;;;;;;5057632;28;20037;-71
2022/07/14 01:51:14;;;;;;;7.13;1.77;;;14.20;99.90;;;;;;5075579;28;20032;-71
2022/07/14 01:53:43;;;;;;;8.40;2.40;;;14.20;99.90;;;;;;5075467;28;20036;-71
2022/07/14 01:56:09;;;;;;;9.90;2.65;;;14.20;99.90;;;;;;5075290;28;20119;-71
2022/07/14 01:58:35;;;;;;;8.77;2.25;;;14.10;99.90;;;;;;5056543;28;20113;-71
2022/07/14 02:03:45;;;;;;;8.63;2.80;;;14.10;99.90;;;;;;5075294;28;20079;-71
2022/07/14 02:06:12;;;;;;;8.65;1.98;;;14.10;99.90;;;;;;5075350;28;20094;-71
2022/07/14 02:08:38;;;;;;;5.30;1.52;;;14.10;99.90;;;;;;5074986;28;20040;-71
2022/07/14 02:13:48;;;;;;;7.75;2.40;;;14.00;99.90;;;;;;5075279;28;20072;-71
2022/07/14 02:16:13;;;;;;;6.88;1.60;;;14.00;99.90;;;;;;5075147;28;20036;-71
2022/07/14 02:18:39;;;;;;;6.10;2.30;;;13.90;99.90;;;;;;5074716;28;20036;-71
2022/07/14 02:21:05;;;;;;;6.07;1.80;;;13.90;99.90;;;;;;5073500;28;20087;-71
2022/07/14 02:23:30;;;;;;;6.88;2.03;;;13.80;99.90;;;;;;5075063;28;20051;-71
2022/07/14 02:25:56;;;;;;;8.93;2.03;;;13.80;99.90;;;;;;5074813;28;20124;-71
2022/07/14 02:28:22;;;;;;;7.85;2.20;;;13.80;99.90;;;;;;5073511;28;20116;-71
2022/07/14 02:30:48;;;;;;;10.77;2.53;;;13.70;99.90;;;;;;5073661;28;20048;-71
2022/07/14 02:33:14;;;;;;;8.52;1.98;;;13.70;99.90;;;;;;5074823;28;20040;-71
2022/07/14 02:35:39;;;;;;;8.77;2.35;;;13.70;99.90;;;;;;5074483;28;20102;-71
2022/07/14 02:38:05;;;;;;;7.45;2.10;;;13.70;99.90;;;;;;5074189;28;20048;-71
2022/07/14 02:40:32;;;;;;;8.73;2.60;;;13.60;99.90;;;;;;5074539;28;20037;-71
2022/07/14 02:42:59;;;;;;;7.05;2.20;;;13.60;99.90;;;;;;5074352;28;20044;-71
2022/07/14 02:45:25;;;;;;;7.28;2.17;;;13.60;99.90;;;;;;5074442;28;20037;-71
2022/07/14 02:47:50;;;;;;;7.07;1.70;;;13.60;99.90;;;;;;5073034;28;20131;-71
2022/07/14 02:50:16;;;;;;;6.60;1.63;;;13.50;99.90;;;;;;5072858;28;20041;-71
2022/07/14 02:52:42;;;;;;;7.53;1.77;;;13.50;99.90;;;;;;5074346;28;20052;-71
2022/07/14 02:55:08;;;;;;;4.30;1.50;;;13.50;99.90;;;;;;5073007;28;20040;-71
2022/07/14 02:57:33;;;;;;;5.63;1.65;;;13.50;99.90;;;;;;5056447;28;20044;-71
2022/07/14 02:59:59;;;;;;;6.90;1.60;;;13.40;99.90;;;;;;5056138;28;20075;-71
2022/07/14 03:02:25;;;;;;;6.60;2.08;;;13.40;99.90;;;;;;5055851;28;20101;-71
2022/07/14 03:04:51;;;;;;;7.82;2.53;;;13.30;99.90;;;;;;5074270;28;20043;-71
2022/07/14 03:07:17;;;;;;;6.38;1.70;;;13.40;99.90;;;;;;5072555;28;20036;-71
2022/07/14 03:09:42;;;;;;;5.10;1.55;;;13.40;99.90;;;;;;5073724;28;20040;-71
2022/07/14 03:12:08;;;;;;;6.60;1.50;;;13.30;99.90;;;;;;5055964;28;20032;-71
2022/07/14 03:14:34;;;;;;;4.32;1.40;;;13.30;99.90;;;;;;5055825;28;20120;-71
2022/07/14 03:16:59;;;;;;;4.82;1.90;;;13.30;99.90;;;;;;5073835;28;20469;-71
2022/07/14 03:19:25;;;;;;;8.75;2.13;;;13.30;99.90;;;;;;5073505;28;20488;-71
2022/07/14 03:21:51;;;;;;;8.75;1.92;;;13.30;99.90;;;;;;5072382;28;20044;-71
2022/07/14 03:24:17;;;;;;;10.20;2.35;;;13.20;99.90;;;;;;5072601;28;20052;-71
2022/07/14 03:26:43;;;;;;;5.85;1.50;;;13.20;99.90;;;;;;5072829;28;20083;-71
2022/07/14 03:29:09;;;;;;;3.50;1.33;;;13.20;99.90;;;;;;5073667;28;20064;-71
2022/07/14 03:31:34;;;;;;;4.50;1.63;;;13.10;99.90;;;;;;5055831;28;20040;-71
2022/07/14 03:34:00;;;;;;;7.35;1.90;;;13.20;99.90;;;;;;5073249;28;20036;-71
2022/07/14 03:36:26;;;;;;;10.00;1.95;;;13.10;99.90;;;;;;5073630;28;20085;-71
2022/07/14 03:38:52;;;;;;;8.15;2.25;;;13.10;99.90;;;;;;5073635;28;20105;-71
2022/07/14 03:41:17;;;;;;;7.63;2.42;;;13.10;99.90;;;;;;5073502;28;20063;-71
2022/07/14 03:43:43;;;;;;;7.82;2.17;;;13.10;99.90;;;;;;5072244;28;20047;-71
2022/07/14 03:46:09;;;;;;;5.93;2.13;;;13.10;99.90;;;;;;5073574;28;20040;-71
2022/07/14 03:48:35;;;;;;;7.05;3.90;;;13.10;99.90;;;;;;5055603;28;20040;-71
2022/07/14 03:51:01;;;;;;;4.90;1.88;;;13.10;99.90;;;;;;5073576;28;20398;-71
2022/07/14 03:53:27;;;;;;;5.22;1.70;;;13.00;99.90;;;;;;5073398;28;20028;-71
2022/07/14 03:55:52;;;;;;;6.38;1.95;;;13.00;99.90;;;;;;5073272;28;20094;-71
2022/07/14 03:58:18;;;;;;;6.70;1.98;;;13.00;99.90;;;;;;5073364;28;20505;-71
2022/07/14 04:00:44;;;;;;;4.60;1.90;;;12.90;99.90;;;;;;5073385;28;20464;-71
2022/07/14 04:03:11;;;;;;;4.47;1.95;;;13.00;99.90;;;;;;5071782;28;20080;-71
2022/07/14 04:05:37;;;;;;;5.72;2.13;;;12.90;99.90;;;;;;5073427;28;20044;-71
2022/07/14 04:08:03;;;;;;;7.57;1.92;;;12.90;99.90;;;;;;5073384;28;20048;-71
2022/07/14 04:10:28;;;;;;;6.53;2.00;;;12.90;99.90;;;;;;5073469;28;20036;-71
2022/07/14 04:12:56;;;;;;;7.28;2.53;;;12.90;99.90;;;;;;5071194;28;20059;-71
2022/07/14 04:15:23;;;;;;;6.60;2.88;;;13.00;99.90;;;;;;5073291;28;20048;-71
2022/07/14 04:17:49;;;;;;;9.50;2.75;;;13.00;99.90;;;;;;5073055;28;20047;-71
2022/07/14 04:20:15;;;;;;;6.15;2.20;;;13.10;99.90;;;;;;5073288;28;20040;-71
2022/07/14 04:22:40;;;;;;;6.90;2.05;;;13.10;99.90;;;;;;5075404;28;20413;-73
2022/07/14 04:25:09;;;;;;;5.82;1.83;;;13.10;99.90;;;;;;5075742;28;20144;-71
2022/07/14 04:27:34;;;;;;;5.28;2.03;;;13.10;99.90;;;;;;5077182;28;20041;-71
2022/07/14 04:30:00;;;;;;;7.18;2.30;;;13.10;99.90;;;;;;5076093;28;20040;-71
2022/07/14 04:32:26;;;;;;;7.82;2.35;;;13.10;99.90;;;;;;5058989;28;20048;-71
2022/07/14 04:34:52;;;;;;;6.82;2.40;;;13.10;99.90;;;;;;5077209;28;20044;-71
2022/07/14 04:37:18;;;;;;;11.02;2.80;;;13.10;99.90;;;;;;5076934;28;20405;-71
2022/07/14 04:39:44;;;;;;;9.40;2.72;;;13.10;99.90;;;;;;5076979;28;20044;-71
2022/07/14 04:42:09;;;;;;;7.45;2.88;;;13.10;99.90;;;;;;5058879;28;20052;-71
2022/07/14 04:44:35;;;;;;;9.27;2.90;;;13.20;99.90;;;;;;5058684;28;20521;-71
2022/07/14 04:47:01;;;;;;;6.45;2.50;;;13.20;99.90;;;;;;5075799;28;20044;-70
2022/07/14 04:52:10;;;;;;;7.43;3.13;;;13.30;99.90;;;;;;5075656;28;20044;-71
2022/07/14 04:54:36;;;;;;;6.85;2.40;;;13.30;99.90;;;;;;5058854;28;20127;-71
2022/07/14 04:57:06;;;;;;;8.82;2.53;;;13.40;99.90;;;;;;5076604;28;20090;-70
2022/07/14 04:59:32;;;;;;;9.38;3.47;;;13.50;99.90;;;;;;5059185;28;20080;-71
2022/07/14 05:01:58;;;;;;;10.55;2.92;;;13.60;99.90;;;;;;5076680;28;20520;-71
2022/07/14 05:04:23;;;;;;;12.10;3.33;;;13.60;99.90;;;;;;5058287;28;20404;-71
2022/07/14 05:06:49;;;;;;;10.85;3.00;;;13.70;99.90;;;;;;5076675;28;20028;-71
2022/07/14 05:09:18;;;;;;;8.65;3.22;;;13.80;99.90;;;;;;5075685;28;20048;-73
2022/07/14 05:11:45;;;;;;;7.88;2.60;;;13.90;99.90;;;;;;5076311;28;20036;-71
2022/07/14 05:14:10;;;;;;;7.65;2.80;;;13.90;99.90;;;;;;5076366;28;20037;-71
2022/07/14 05:16:36;;;;;;;12.90;3.70;;;13.90;99.90;;;;;;5076359;28;20044;-70
2022/07/14 05:19:02;;;;;;;12.90;3.13;;;13.90;99.90;;;;;;5074831;28;20080;-71
2022/07/14 05:21:27;;;;;;;10.15;3.15;;;13.90;99.90;;;;;;5074756;28;20032;-70
2022/07/14 05:23:53;;;;;;;10.55;2.80;;;13.90;99.90;;;;;;5075518;28;20481;-70
2022/07/14 05:26:18;;;;;;;11.00;3.05;;;14.00;99.90;;;;;;5075813;28;20033;-70
2022/07/14 05:28:44;;;;;;;10.68;2.92;;;14.10;99.90;;;;;;5074246;28;20043;-71
2022/07/14 05:31:10;;;;;;;11.77;3.35;;;14.20;99.90;;;;;;5074246;28;20032;-72
2022/07/14 05:33:36;;;;;;;12.15;2.90;;;14.30;99.90;;;;;;5072787;28;20044;-72
2022/07/14 05:36:02;;;;;;;11.50;4.07;;;14.40;99.90;;;;;;5057508;28;20037;-72
2022/07/14 05:38:28;;;;;;;11.60;2.90;;;14.50;99.90;;;;;;5057721;28;20050;-71
2022/07/14 05:40:54;;;;;;;12.52;3.72;;;14.50;99.90;;;;;;5074108;28;20489;-71
2022/07/14 05:43:19;;;;;;;12.68;3.15;;;14.60;99.90;;;;;;5073914;28;20044;-71
2022/07/14 05:45:46;;;;;;;8.68;2.65;;;14.70;99.90;;;;;;5074030;28;20029;-71
2022/07/14 05:48:11;;;;;;;7.90;2.50;;;14.80;99.90;;;;;;5057647;28;20036;-71
2022/07/14 05:50:37;;;;;;;9.57;2.25;;;14.90;99.90;;;;;;5073865;28;20045;-71
2022/07/14 05:53:03;;;;;;;7.43;2.30;;;15.00;99.90;;;;;;5074084;28;20043;-71
2022/07/14 05:55:28;;;;;;;8.70;2.80;;;15.10;99.90;;;;;;5073834;28;20515;-71
2022/07/14 05:57:54;;;;;;;8.63;2.17;;;15.10;99.90;;;;;;5073767;28;20040;-68
2022/07/14 06:00:19;;;;;;;9.20;2.20;;;15.20;99.90;;;;;;5073682;28;20048;-69
2022/07/14 06:02:45;;;;;;;10.90;2.10;;;15.30;99.90;;;;;;5073550;28;20141;-70
2022/07/14 06:05:11;;;;;;;11.40;2.20;;;15.40;99.90;;;;;;5073675;28;20033;-70
2022/07/14 06:07:37;;;;;;;9.15;2.05;;;15.40;99.90;;;;;;5073607;28;20036;-70
2022/07/14 06:10:05;;;;;;;8.00;1.70;;;15.50;99.90;;;;;;5073576;28;20037;-70
2022/07/14 06:12:32;;;;;;;8.55;1.92;;;15.60;99.90;;;;;;5073438;28;20093;-70
2022/07/14 06:14:57;;;;;;;11.90;1.88;;;15.70;99.90;;;;;;5073717;28;20037;-70
2022/07/14 06:17:23;;;;;;;8.95;1.65;;;15.70;99.90;;;;;;5056680;28;20417;-70
2022/07/14 06:19:49;;;;;;;9.85;2.17;;;15.80;99.90;;;;;;5056890;28;20036;-70
2022/07/14 06:22:14;;;;;;;8.25;1.60;;;15.90;99.90;;;;;;5056696;28;20408;-70
2022/07/14 06:24:43;;;;;;;7.68;1.63;;;16.00;99.90;;;;;;5073186;28;20029;-70
2022/07/14 06:27:09;;;;;;;10.88;1.83;;;16.10;99.90;;;;;;5056508;28;20044;-70
2022/07/14 06:29:35;;;;;;;12.80;1.70;;;16.10;99.90;;;;;;5073128;28;20032;-70
2022/07/14 06:32:00;;;;;;;7.28;1.48;;;16.20;99.90;;;;;;5073115;28;20036;-70
2022/07/14 06:34:27;;;;;;;9.77;1.98;;;16.20;99.90;;;;;;5072993;28;20045;-70
2022/07/14 06:36:53;;;;;;;12.23;1.77;;;16.30;99.90;;;;;;5073021;28;20493;-70
2022/07/14 06:39:19;;;;;;;8.52;1.80;;;16.40;99.90;;;;;;5056573;28;20058;-70
2022/07/14 06:41:44;;;;;;;6.80;1.40;;;16.40;99.90;;;;;;5073351;28;20505;-70
2022/07/14 06:44:10;;;;;;;10.10;1.63;;;16.50;99.90;;;;;;5072569;28;20076;-71
2022/07/14 06:46:38;;;;;;;9.43;1.73;;;16.60;99.90;;;;;;5056047;28;20037;-71
2022/07/14 06:49:03;;;;;;;6.70;1.52;;;16.60;99.90;;;;;;5072771;28;20041;-70
2022/07/14 06:51:29;;;;;;;5.70;1.35;;;16.70;99.90;;;;;;5072738;28;20117;-70
2022/07/14 06:53:55;;;;;;;8.00;1.40;;;16.80;99.90;;;;;;5056039;28;20036;-70
2022/07/14 06:56:21;;;;;;;9.05;1.30;;;16.90;99.90;;;;;;5072873;28;20047;-70
2022/07/14 06:58:46;;;;;;;8.27;1.33;;;17.00;99.90;;;;;;5072533;28;20483;-70
2022/07/14 07:01:12;;;;;;;10.10;1.30;;;16.90;99.90;;;;;;5072497;28;20044;-70
2022/07/14 07:03:37;;;;;;;8.80;1.27;;;17.00;99.90;;;;;;5055681;28;20044;-70
2022/07/14 07:08:47;;;;;;;10.30;1.50;;;17.10;99.90;;;;;;5072435;28;20076;-70
2022/07/14 07:11:13;;;;;;;8.70;1.48;;;17.10;99.90;;;;;;5072380;28;20032;-70
2022/07/14 07:13:38;;;;;;;6.60;1.10;;;17.10;99.90;;;;;;5072227;28;20075;-70
2022/07/14 07:16:05;;;;;;;10.43;1.60;;;17.20;99.90;;;;;;5072287;28;20094;-70
2022/07/14 07:18:32;;;;;;;8.93;1.38;;;17.20;99.90;;;;;;5055632;28;20045;-70
2022/07/14 07:20:57;;;;;;;8.77;1.20;;;17.20;99.90;;;;;;5072387;28;20113;-71
2022/07/14 07:23:23;;;;;;;13.65;2.08;;;17.40;99.90;;;;;;5071970;28;20493;-72
2022/07/14 07:25:50;;;;;;;6.38;1.35;;;17.50;99.90;;;;;;5072421;28;20044;-70
2022/07/14 07:28:15;;;;;;;6.97;1.02;;;17.60;99.90;;;;;;5072375;28;20270;-70
2022/07/14 07:30:41;;;;;;;6.47;0.95;;;17.50;99.90;;;;;;5072074;28;20452;-71
2022/07/14 07:33:08;;;;;;;7.13;1.00;;;17.40;99.90;;;;;;5055281;28;20051;-71
2022/07/14 07:35:33;;;;;;;8.30;1.38;;;17.40;99.90;;;;;;5072008;28;20045;-71
2022/07/14 07:37:59;;;;;;;9.88;1.25;;;17.50;99.90;;;;;;5071926;28;20056;-70
2022/07/14 07:40:25;;;;;;;8.68;1.40;;;17.70;99.90;;;;;;5071933;28;20516;-71
2022/07/14 07:42:51;;;;;;;8.10;1.20;;;17.90;99.90;;;;;;5055158;28;20124;-71
2022/07/14 07:45:16;;;;;;;9.13;1.30;;;18.10;99.90;;;;;;5071889;28;20047;-71
2022/07/14 07:47:42;;;;;;;5.05;1.00;;;18.10;99.90;;;;;;5071865;28;20119;-70
2022/07/14 07:50:10;;;;;;;5.43;1.10;;;18.30;99.90;;;;;;5055147;28;20033;-70
2022/07/14 07:52:36;;;;;;;7.25;1.20;;;18.40;99.90;;;;;;5071670;28;20101;-70
2022/07/14 07:55:08;;;;;;;6.10;0.95;;;18.60;99.90;;;;;;5071751;28;20044;-70
2022/07/14 07:57:33;;;;;;;7.38;0.90;;;18.90;99.90;;;;;;5072305;28;20049;-70
2022/07/14 07:59:59;;;;;;;4.72;0.98;;;19.20;99.90;;;;;;5071923;28;20103;-70
2022/07/14 08:02:24;;;;;;;4.72;0.80;;;19.40;99.90;;;;;;5054838;28;20230;-71
2022/07/14 08:04:51;;;;;;;6.28;0.90;;;19.70;99.90;;;;;;5071615;28;20052;-71
2022/07/14 08:07:16;;;;;;;5.15;1.08;;;19.80;99.90;;;;;;5071566;28;20047;-71
2022/07/14 08:09:42;;;;;;;8.65;1.13;;;19.90;99.90;;;;;;5071554;28;20032;-71
2022/07/14 08:12:07;;;;;;;4.20;1.02;;;19.90;99.90;;;;;;5071618;28;20155;-71
2022/07/14 08:14:48;;;;;;;6.75;0.80;;;20.00;99.90;;;;;;5055066;28;20041;-71
2022/07/14 08:17:14;;;;;;;6.00;0.95;;;20.00;99.90;;;;;;5071838;28;20059;-71
2022/07/14 08:19:40;;;;;;;5.30;0.98;;;20.00;99.90;;;;;;5054593;28;20037;-70
2022/07/14 08:22:06;;;;;;;4.45;0.60;;;20.20;99.90;;;;;;5071578;28;20070;-71
2022/07/14 08:24:31;;;;;;;6.43;0.90;;;20.30;99.90;;;;;;5055088;28;20492;-71
2022/07/14 08:26:57;;;;;;;3.70;0.70;;;20.20;99.90;;;;;;5071671;28;20044;-71
2022/07/14 08:29:23;;;;;;;8.80;0.70;;;20.10;99.90;;;;;;5071659;28;20485;-71
2022/07/14 08:31:49;;;;;;;5.53;0.85;;;20.10;99.90;;;;;;5071446;28;20500;-71
2022/07/14 08:34:15;;;;;;;3.30;0.85;;;20.20;99.90;;;;;;5071401;28;20048;-71
2022/07/14 08:36:41;;;;;;;2.90;0.60;;;20.30;99.90;;;;;;5071379;28;20131;-71
2022/07/14 08:39:08;;;;;;;7.13;0.90;;;20.40;99.90;;;;;;5054633;28;20079;-70
2022/07/14 08:41:34;;;;;;;2.95;0.60;;;20.50;99.90;;;;;;5071442;28;20067;-69
2022/07/14 08:44:01;;;;;;;5.35;0.68;;;20.60;99.90;;;;;;5071820;28;20040;-70
2022/07/14 08:46:27;;;;;;;4.05;0.80;;;20.80;99.90;;;;;;5071555;28;20493;-70
2022/07/14 08:48:53;;;;;;;4.45;0.77;;;20.90;99.90;;;;;;5071269;28;20032;-70
2022/07/14 08:51:23;;;;;;;6.63;0.80;;;21.00;99.90;;;;;;5071254;28;20037;-68
2022/07/14 08:53:49;;;;;;;5.57;0.68;;;21.10;99.80;;;;;;5054691;28;20052;-69
2022/07/14 08:56:15;;;;;;;6.25;0.85;;;21.10;99.90;;;;;;5071253;28;20029;-69
2022/07/14 08:58:42;;;;;;;2.55;0.70;;;21.10;98.80;;;;;;5055207;28;20056;-70
2022/07/14 09:01:08;;;;;;;2.83;0.50;;;21.10;99.70;;;;;;5071141;28;20417;-70
2022/07/14 09:03:33;;;;;;;3.83;0.88;;;21.10;99.40;;;;;;5054256;28;20041;-70
2022/07/14 09:05:59;;;;;;;3.83;0.70;;;21.20;99.60;;;;;;5071085;28;20036;-70
2022/07/14 09:08:25;;;;;;;3.10;0.65;;;21.30;99.90;;;;;;5072941;28;20036;-67
2022/07/14 09:10:50;;;;;;;8.13;0.63;;;21.30;98.70;;;;;;5074673;28;20489;-69
2022/07/14 09:13:21;;;;;;;3.53;0.65;;;21.40;96.60;;;;;;5058134;28;20054;-69
2022/07/14 09:15:48;;;;;;;3.17;0.60;;;21.50;96.80;;;;;;5074588;28;20055;-69
2022/07/14 09:18:21;;;;;;;2.10;0.40;;;21.60;96.90;;;;;;5074384;28;20086;-70
2022/07/14 09:20:47;;;;;;;4.95;0.77;;;21.70;97.70;;;;;;5074486;28;20094;-69
2022/07/14 09:23:13;;;;;;;4.90;0.70;;;21.70;96.40;;;;;;5074276;28;20479;-70
2022/07/14 09:25:38;;;;;;;6.28;1.02;;;21.70;94.70;;;;;;5074641;28;20128;-71
2022/07/14 09:28:05;;;;;;;2.33;0.50;;;21.80;94.40;;;;;;5074323;28;20029;-71
2022/07/14 09:30:34;;;;;;;3.63;0.50;;;21.70;96.20;;;;;;5057673;28;20123;-71
2022/07/14 09:33:01;;;;;;;5.65;1.00;;;21.70;96.40;;;;;;5074206;28;20036;-71
2022/07/14 09:35:39;;;;;;;3.40;0.73;;;21.80;96.30;;;;;;5074424;28;20048;-71
2022/07/14 09:38:23;;;;;;;4.05;0.55;;;21.90;96.10;;;;;;5057838;28;20150;-71
2022/07/14 09:40:50;;;;;;;5.72;0.80;;;21.80;96.30;;;;;;5057497;28;20583;-71
2022/07/14 09:43:16;;;;;;;2.90;0.52;;;21.70;96.80;;;;;;5073925;28;20447;-71
2022/07/14 09:45:45;;;;;;;5.38;0.90;;;21.70;97.20;;;;;;5057632;28;20396;-71
2022/07/14 09:48:18;;;;;;;4.05;0.85;;;21.80;97.00;;;;;;5057673;28;20048;-70
2022/07/14 09:50:47;;;;;;;3.75;0.57;;;21.90;95.10;;;;;;5073973;28;20074;-71
2022/07/14 09:53:22;;;;;;;4.90;0.68;;;22.00;96.70;;;;;;5057201;28;20076;-71
2022/07/14 09:56:06;;;;;;;2.70;0.45;;;22.10;95.30;;;;;;5074043;28;20500;-69
2022/07/14 09:58:45;;;;;;;4.18;0.80;;;22.20;93.00;;;;;;5057204;28;20047;-70
2022/07/14 10:01:18;;;;;;;4.15;0.70;;;22.10;91.30;;;;;;5057349;28;20496;-70
2022/07/14 10:03:47;;;;;;;3.78;0.57;;;22.00;91.90;;;;;;5073703;28;20049;-70
2022/07/14 10:06:14;;;;;;;3.22;0.60;;;22.00;91.40;;;;;;5073659;28;20511;-70
2022/07/14 10:08:45;;;;;;;4.57;0.50;;;21.90;92.50;;;;;;5073583;28;20087;-70
2022/07/14 10:11:12;;;;;;;6.13;0.70;;;21.90;93.00;;;;;;5057392;28;20036;-70
2022/07/14 10:13:39;;;;;;;5.85;0.80;;;21.80;92.50;;;;;;5073420;28;20051;-70
2022/07/14 10:16:05;;;;;;;7.68;0.80;;;21.80;91.70;;;;;;5073633;28;20562;-70
2022/07/14 10:18:32;;;;;;;2.67;0.75;;;21.80;93.30;;;;;;5073178;28;20475;-70
2022/07/14 10:21:00;;;;;;;3.08;0.40;;;21.80;91.80;;;;;;5072567;28;20120;-70
2022/07/14 10:23:27;;;;;;;3.13;0.65;;;21.70;92.10;;;;;;5073058;28;20079;-69
2022/07/14 10:25:57;;;;;;;5.22;0.70;;;21.60;92.40;;;;;;5073118;28;20075;-69
2022/07/14 10:28:23;;;;;;;5.85;0.70;;;21.70;94.20;;;;;;5056738;28;20485;-70
2022/07/14 10:31:21;;;;;;;3.13;0.50;;;21.70;95.10;;;;;;5056507;28;20040;-69
2022/07/14 10:34:08;;;;;;;2.22;0.32;;;21.70;94.70;;;;;;5073067;28;20045;-69
2022/07/14 10:36:57;;;;;;;4.30;0.73;;;21.80;94.30;;;;;;5056401;28;20124;-70
2022/07/14 10:39:46;;;;;;;5.20;0.80;;;21.90;94.60;;;;;;5073049;28;20071;-69
2022/07/14 10:42:52;;;;;;;7.15;0.57;;;21.90;92.50;;;;;;5072881;28;20523;-70
2022/07/14 10:45:18;;;;;;;2.42;0.73;;;21.90;92.80;;;;;;5073140;28;20036;-70
2022/07/14 10:47:46;;;;;;;2.72;0.50;;;22.00;94.60;;;;;;5073099;28;20044;-70
2022/07/14 10:50:13;;;;;;;4.03;0.60;;;22.00;94.00;;;;;;5073006;28;20044;-70
2022/07/14 10:52:54;;;;;;;4.10;0.63;;;22.10;90.60;;;;;;5072631;28;20515;-69
2022/07/14 10:55:21;;;;;;;3.95;0.40;;;22.10;89.30;;;;;;5072710;28;20052;-67
2022/07/14 10:57:59;;;;;;;7.32;0.63;;;22.00;90.40;;;;;;5072584;28;20052;-70
2022/07/14 11:00:55;;;;;;;4.97;0.60;;;22.10;88.70;;;;;;5072530;28;20051;-70
2022/07/14 11:03:32;;;;;;;3.95;0.65;;;22.10;93.20;;;;;;5072416;28;20047;-70
2022/07/14 11:06:03;;;;;;;5.35;0.80;;;22.00;90.90;;;;;;5072700;28;20127;-70
2022/07/14 11:08:30;;;;;;;2.05;0.40;;;22.00;92.60;;;;;;5055786;28;20036;-70
2022/07/14 11:10:57;;;;;;;4.68;0.77;;;22.00;94.40;;;;;;5072654;28;20094;-70
2022/07/14 11:13:23;;;;;;;4.85;0.70;;;22.00;95.40;;;;;;5072546;28;20141;-70
2022/07/14 11:15:52;;;;;;;3.10;0.55;;;21.90;95.40;;;;;;5072236;28;20500;-69
2022/07/14 11:18:17;;;;;;;4.47;0.73;;;21.90;95.10;;;;;;5055493;28;20040;-69
2022/07/14 11:21:06;;;;;;;5.82;0.80;;;21.90;94.30;;;;;;5055599;28;20047;-69
2022/07/14 11:23:42;;;;;;;3.47;0.32;;;21.90;95.00;;;;;;5072120;28;20041;-69
2022/07/14 11:26:40;;;;;;;3.28;0.50;;;21.90;94.00;;;;;;5072217;28;20511;-69
2022/07/14 11:29:11;;;;;;;2.47;0.60;;;22.00;91.40;;;;;;5072202;28;20119;-69
2022/07/14 11:31:49;;;;;;;3.25;0.60;;;22.00;91.70;;;;;;5072058;28;20501;-69
2022/07/14 11:37:09;;;;;;;3.65;0.70;;;22.10;93.70;;;;;;5072368;28;20520;-69
2022/07/14 11:39:38;;;;;;;6.22;0.90;;;22.20;93.10;;;;;;5073564;28;20072;-69
2022/07/14 11:42:07;;;;;;;4.18;0.75;;;22.30;92.60;;;;;;5071923;28;20051;-69
2022/07/14 11:44:35;;;;;;;1.70;0.40;;;22.30;92.10;;;;;;5071909;28;20045;-69
2022/07/14 11:47:03;;;;;;;3.03;0.77;;;22.40;91.70;;;;;;5055235;28;20523;-69
2022/07/14 11:49:30;;;;;;;2.75;0.60;;;22.50;91.60;;;;;;5072157;28;20139;-69
2022/07/14 11:51:57;;;;;;;3.95;0.60;;;22.50;90.90;;;;;;5071852;28;20045;-69
2022/07/14 11:54:24;;;;;;;4.13;0.80;;;22.50;91.00;;;;;;5071830;28;20041;-69
2022/07/14 11:57:01;;;;;;;7.82;1.10;;;22.50;93.10;;;;;;5073606;28;20044;-69
2022/07/14 11:59:27;;;;;;;2.70;0.43;;;22.70;92.00;;;;;;5072103;28;20048;-69
2022/07/14 12:02:04;;;;;;;4.88;0.80;;;22.80;92.30;;;;;;5071670;28;20412;-69
2022/07/14 12:04:30;;;;;;;4.32;0.70;;;23.10;91.10;;;;;;5071963;28;20044;-69
2022/07/14 12:06:56;;;;;;;3.28;0.60;;;23.40;92.10;;;;;;5071706;28;20045;-69
2022/07/14 12:09:32;;;;;;;13.45;1.83;;;23.60;90.60;;;;;;5071663;28;20063;-69
2022/07/14 12:11:57;;;;;;;5.20;0.70;;;23.80;89.20;;;;;;5071655;28;20081;-69
2022/07/14 12:14:24;;;;;;;3.70;0.85;;;23.60;87.20;;;;;;5071591;28;20149;-69
2022/07/14 12:16:50;;;;;;;3.15;0.50;;;23.60;82.00;;;;;;5071575;28;20574;-69
2022/07/14 12:19:32;;;;;;;2.00;0.55;;;23.60;79.50;;;;;;5071539;28;20515;-69
2022/07/14 12:22:03;;;;;;;4.55;0.70;;;23.60;76.30;;;;;;5071739;28;20063;-69
2022/07/14 12:24:29;;;;;;;2.83;0.47;;;23.60;78.20;;;;;;5071473;28;20489;-69
2022/07/14 12:27:04;;;;;;;4.15;0.60;;;23.60;78.90;;;;;;5071480;28;20047;-70
2022/07/14 12:29:30;;;;;;;2.00;0.40;;;23.60;75.80;;;;;;5054839;28;20043;-70
2022/07/14 12:31:57;;;;;;;3.05;0.50;;;23.80;73.20;;;;;;5071431;28;20381;-70
2022/07/14 12:34:24;;;;;;;3.13;0.50;;;24.10;75.80;;;;;;5071668;28;20045;-70
2022/07/14 12:36:50;;;;;;;3.58;0.70;;;24.40;72.80;;;;;;5071486;28;20044;-70
2022/07/14 12:39:18;;;;;;;4.00;0.60;;;24.70;65.30;;;;;;5071673;28;20049;-70
2022/07/14 12:41:46;;;;;;;2.75;0.60;;;25.00;66.80;;;;;;5054543;28;20401;-70
2022/07/14 12:44:12;;;;;;;3.42;0.55;;;25.40;66.90;;;;;;5074542;28;20095;-70
2022/07/14 12:46:38;;;;;;;2.88;0.70;;;25.80;66.30;;;;;;5075148;28;20097;-70
2022/07/14 12:49:06;;;;;;;4.45;0.73;;;26.00;61.00;;;;;;5075089;28;20044;-70
2022/07/14 12:51:43;;;;;;;4.93;0.50;;;26.20;59.00;;;;;;5075659;28;20052;-70
2022/07/14 12:54:31;;;;;;;3.72;0.98;;;25.70;55.70;;;;;;5074948;28;20076;-70
2022/07/14 12:56:57;;;;;;;2.20;0.60;;;25.30;56.90;;;;;;5076191;28;20094;-70
2022/07/14 12:59:35;;;;;;;3.22;0.60;;;24.70;58.00;;;;;;5074935;28;20040;-70
2022/07/14 13:02:06;;;;;;;1.40;0.40;;;24.30;59.40;;;;;;5075016;28;20043;-70